createdAt,value
2018-03-03T00:02:18.453Z,93181.91
2018-03-03T00:04:45.835Z,93139.95
2018-03-03T00:07:13.216Z,93119.19
2018-03-03T00:09:40.573Z,93144.03
2018-03-03T00:12:08.006Z,93154.16
2018-03-03T00:14:35.519Z,93152.31
2018-03-03T00:17:03.146Z,93176.98
2018-03-03T00:19:30.532Z,93160.78
2018-03-03T00:21:57.949Z,93155.66
2018-03-03T00:24:25.458Z,93164.72
2018-03-03T00:26:52.869Z,93147.00
2018-03-03T00:29:20.227Z,93155.91
2018-03-03T00:31:47.617Z,93173.73
2018-03-03T00:34:14.966Z,93156.66
2018-03-03T00:36:42.362Z,93161.95
2018-03-03T00:39:09.720Z,93173.30
2018-03-03T00:41:37.417Z,93176.34
2018-03-03T00:44:04.772Z,93196.82
2018-03-03T00:46:32.128Z,93184.47
2018-03-03T00:48:59.569Z,93176.59
2018-03-03T00:51:27.009Z,93200.94
2018-03-03T00:53:54.473Z,93209.28
2018-03-03T00:56:21.869Z,93215.83
2018-03-03T00:58:49.371Z,93240.26
2018-03-03T01:01:16.747Z,93231.09
2018-03-03T01:03:44.107Z,93234.77
2018-03-03T01:06:11.516Z,93254.02
2018-03-03T01:08:38.925Z,93240.61
2018-03-03T01:11:06.418Z,93245.73
2018-03-03T01:13:33.806Z,93263.39
2018-03-03T01:16:01.354Z,93250.22
2018-03-03T01:18:28.761Z,93261.95
2018-03-03T01:20:56.384Z,93263.41
2018-03-03T01:23:23.785Z,93245.57
2018-03-03T01:25:51.157Z,93249.70
2018-03-03T01:28:18.550Z,93231.17
2018-03-03T01:30:45.890Z,93229.23
2018-03-03T01:33:13.271Z,93232.38
2018-03-03T01:35:40.618Z,93235.64
2018-03-03T01:38:08.162Z,93249.37
2018-03-03T01:40:35.513Z,93244.80
2018-03-03T01:43:03.050Z,93250.42
2018-03-03T01:45:30.549Z,93245.75
2018-03-03T01:47:57.957Z,93255.54
2018-03-03T01:50:25.409Z,93254.80
2018-03-03T01:52:52.801Z,93246.00
2018-03-03T01:55:20.185Z,93264.06
2018-03-03T01:57:47.528Z,93274.91
2018-03-03T02:00:14.897Z,93296.28
2018-03-03T02:02:42.239Z,93299.95
2018-03-03T02:07:42.317Z,93287.08
2018-03-03T02:10:09.689Z,93275.59
2018-03-03T02:12:37.064Z,93204.39
2018-03-03T02:15:04.406Z,93228.83
2018-03-03T02:17:31.742Z,93239.23
2018-03-03T02:19:59.128Z,93238.28
2018-03-03T02:22:26.483Z,93255.09
2018-03-03T02:24:53.829Z,93254.21
2018-03-03T02:27:21.161Z,93234.22
2018-03-03T02:29:48.529Z,93257.19
2018-03-03T02:32:15.899Z,93260.69
2018-03-03T02:34:43.237Z,93251.30
2018-03-03T02:37:10.565Z,93242.09
2018-03-03T02:39:37.910Z,93236.19
2018-03-03T02:42:05.278Z,93239.48
2018-03-03T02:44:32.668Z,93236.96
2018-03-03T02:47:00.037Z,93233.52
2018-03-03T02:49:27.417Z,93231.20
2018-03-03T02:51:54.757Z,93254.05
2018-03-03T02:54:22.093Z,93259.45
2018-03-03T02:56:49.483Z,93255.72
2018-03-03T02:59:16.810Z,93253.09
2018-03-03T03:01:44.190Z,93254.17
2018-03-03T03:04:11.526Z,93259.52
2018-03-03T03:06:38.943Z,93251.11
2018-03-03T03:09:06.281Z,93230.27
2018-03-03T03:11:33.606Z,93258.23
2018-03-03T03:14:00.976Z,93236.09
2018-03-03T03:16:28.388Z,93233.25
2018-03-03T03:18:55.822Z,93243.84
2018-03-03T03:21:23.157Z,93235.91
2018-03-03T03:23:50.537Z,93214.81
2018-03-03T03:26:17.873Z,93225.34
2018-03-03T03:28:45.246Z,93220.38
2018-03-03T03:33:45.956Z,93236.14
2018-03-03T03:36:13.294Z,93234.15
2018-03-03T03:38:40.640Z,93225.95
2018-03-03T03:41:07.983Z,93232.08
2018-03-03T03:43:35.320Z,93225.51
2018-03-03T03:46:02.661Z,93257.43
2018-03-03T03:48:30.041Z,93231.06
2018-03-03T03:50:57.467Z,93234.98
2018-03-03T03:53:24.841Z,93242.67
2018-03-03T03:55:52.195Z,93241.98
2018-03-03T03:58:19.540Z,93235.27
2018-03-03T04:00:46.923Z,93229.11
2018-03-03T04:03:14.257Z,93228.09
2018-03-03T04:05:41.605Z,93228.59
2018-03-03T04:08:08.952Z,93235.41
2018-03-03T04:10:36.287Z,93240.06
2018-03-03T04:13:03.629Z,93246.86
2018-03-03T04:15:30.962Z,93236.56
2018-03-03T04:17:58.318Z,93241.34
2018-03-03T04:20:25.702Z,93234.03
2018-03-03T04:22:53.050Z,93243.34
2018-03-03T04:25:20.405Z,93231.72
2018-03-03T04:27:47.751Z,93229.39
2018-03-03T04:30:15.086Z,93239.97
2018-03-03T04:32:42.419Z,93245.80
2018-03-03T04:35:09.789Z,93249.59
2018-03-03T04:37:37.143Z,93246.11
2018-03-03T04:40:04.525Z,93262.47
2018-03-03T04:42:31.857Z,93262.59
2018-03-03T04:44:59.186Z,93257.67
2018-03-03T04:47:26.522Z,93253.02
2018-03-03T04:49:53.862Z,93262.66
2018-03-03T04:52:21.216Z,93267.12
2018-03-03T04:54:48.581Z,93265.22
2018-03-03T04:57:15.964Z,93278.39
2018-03-03T04:59:43.313Z,93271.17
2018-03-03T05:02:10.655Z,93265.80
2018-03-03T05:04:38.025Z,93262.83
2018-03-03T05:07:05.358Z,93271.98
2018-03-03T05:09:32.687Z,93255.16
2018-03-03T05:12:00.023Z,93274.14
2018-03-03T05:14:27.362Z,93286.14
2018-03-03T05:16:54.697Z,93287.72
2018-03-03T05:19:22.102Z,93289.24
